Time;durP1;ratioP1;P1;durP2;ratioP2;P2;SDS_P1;SDS_P2;PMS_P1;PMS_P2;Temp;Humidity;BMP_temperature;BMP_pressure;BME280_temperature;BME280_humidity;BME280_pressure;Samples;Min_cycle;Max_cycle;Signal;HPM_P1;HPM_P2
2023/07/27 00:01:52;;;;;;;7.70;6.43;;;;;;;;;;5040573;28;20495;-81
2023/07/27 00:04:18;;;;;;;9.03;6.33;;;;;;;;;;5041486;28;20485;-81
2023/07/27 00:06:46;;;;;;;8.70;6.40;;;;;;;;;;5042179;28;20455;-81
2023/07/27 00:09:13;;;;;;;8.10;5.50;;;;;;;;;;5042474;28;20489;-81
2023/07/27 00:11:39;;;;;;;9.37;6.03;;;;;;;;;;5039785;28;20458;-81
2023/07/27 00:14:07;;;;;;;8.40;5.70;;;;;;;;;;5041103;28;20427;-81
2023/07/27 00:16:35;;;;;;;10.30;7.00;;;;;;;;;;5039444;28;20487;-81
2023/07/27 00:19:01;;;;;;;7.43;6.13;;;;;;;;;;5041784;28;20837;-81
2023/07/27 00:21:27;;;;;;;8.40;5.40;;;;;;;;;;5042211;28;20835;-81
2023/07/27 00:23:54;;;;;;;9.77;5.83;;;;;;;;;;5040940;28;20458;-81
2023/07/27 00:26:20;;;;;;;10.33;6.73;;;;;;;;;;5039659;28;20450;-81
2023/07/27 00:28:46;;;;;;;10.93;7.17;;;;;;;;;;5042170;28;20434;-81
2023/07/27 00:31:14;;;;;;;8.77;5.43;;;;;;;;;;5040057;28;20451;-81
2023/07/27 00:33:41;;;;;;;8.63;6.70;;;;;;;;;;5041798;28;20441;-81
2023/07/27 00:36:07;;;;;;;10.87;6.87;;;;;;;;;;5038946;28;20462;-81
2023/07/27 00:38:33;;;;;;;11.20;6.50;;;;;;;;;;5040123;28;21365;-81
2023/07/27 00:41:00;;;;;;;15.30;6.10;;;;;;;;;;5041311;28;20471;-81
2023/07/27 00:43:26;;;;;;;10.23;6.57;;;;;;;;;;5041000;28;20487;-81
2023/07/27 00:45:54;;;;;;;7.67;6.27;;;;;;;;;;5039488;28;21043;-81
2023/07/27 00:48:22;;;;;;;10.20;6.67;;;;;;;;;;5041217;28;20437;-81
2023/07/27 00:50:48;;;;;;;8.80;7.40;;;;;;;;;;5038970;28;20442;-81
2023/07/27 00:53:15;;;;;;;8.00;6.83;;;;;;;;;;5040310;28;20430;-81
2023/07/27 00:55:43;;;;;;;11.40;7.40;;;;;;;;;;5040926;28;20530;-81
2023/07/27 00:58:09;;;;;;;10.27;7.10;;;;;;;;;;5042340;28;20468;-80
2023/07/27 01:00:35;;;;;;;11.07;7.20;;;;;;;;;;5039495;28;20454;-81
2023/07/27 01:03:03;;;;;;;10.47;7.03;;;;;;;;;;5041497;28;20464;-81
2023/07/27 01:05:31;;;;;;;9.13;6.90;;;;;;;;;;5038987;28;20432;-81
2023/07/27 01:07:58;;;;;;;9.73;7.30;;;;;;;;;;5040430;28;20463;-81
2023/07/27 01:10:30;;;;;;;8.60;7.20;;;;;;;;;;5041329;28;20537;-81
2023/07/27 01:12:59;;;;;;;11.00;8.07;;;;;;;;;;5039617;28;20461;-81
2023/07/27 01:15:27;;;;;;;11.20;7.10;;;;;;;;;;5038577;28;20450;-81
2023/07/27 01:17:57;;;;;;;10.80;8.03;;;;;;;;;;5040630;28;20456;-81
2023/07/27 01:20:25;;;;;;;8.50;6.80;;;;;;;;;;5040630;28;20480;-80
2023/07/27 01:23:18;;;;;;;10.40;6.30;;;;;;;;;;5042676;28;20452;-81
2023/07/27 01:26:02;;;;;;;11.30;7.47;;;;;;;;;;5041833;28;20510;-81
2023/07/27 01:28:39;;;;;;;8.37;6.70;;;;;;;;;;5039998;28;20459;-80
2023/07/27 01:31:10;;;;;;;10.50;8.43;;;;;;;;;;5042425;28;20839;-81
2023/07/27 01:33:39;;;;;;;13.40;7.97;;;;;;;;;;5041381;28;20438;-81
2023/07/27 01:36:08;;;;;;;10.90;7.90;;;;;;;;;;5041161;28;20448;-81
2023/07/27 01:38:36;;;;;;;17.60;9.00;;;;;;;;;;5041904;28;20533;-81
2023/07/27 01:41:03;;;;;;;10.97;7.60;;;;;;;;;;5040616;28;20455;-81
2023/07/27 01:43:29;;;;;;;11.30;7.43;;;;;;;;;;5039358;28;20487;-81
2023/07/27 01:45:56;;;;;;;12.53;8.57;;;;;;;;;;5037850;28;20436;-81
2023/07/27 01:48:25;;;;;;;11.83;8.03;;;;;;;;;;5041336;28;20460;-81
2023/07/27 01:50:54;;;;;;;11.97;8.07;;;;;;;;;;5041451;28;20529;-81
2023/07/27 01:53:23;;;;;;;14.13;9.33;;;;;;;;;;5041401;28;20456;-81
2023/07/27 01:55:50;;;;;;;11.77;8.90;;;;;;;;;;5042340;28;20451;-81
2023/07/27 01:58:17;;;;;;;12.57;9.30;;;;;;;;;;5041355;28;20855;-81
2023/07/27 02:00:43;;;;;;;14.50;9.30;;;;;;;;;;5039868;28;20462;-81
2023/07/27 02:03:10;;;;;;;14.30;9.63;;;;;;;;;;5039177;28;20431;-81
2023/07/27 02:05:37;;;;;;;17.40;9.00;;;;;;;;;;5038947;28;20457;-81
2023/07/27 02:08:04;;;;;;;11.17;8.80;;;;;;;;;;5039849;28;20430;-81
2023/07/27 02:10:31;;;;;;;10.70;8.50;;;;;;;;;;5039865;28;20487;-81
2023/07/27 02:13:01;;;;;;;11.43;8.80;;;;;;;;;;5038548;28;20471;-81
2023/07/27 02:15:30;;;;;;;15.80;9.10;;;;;;;;;;5039454;28;20430;-81
2023/07/27 02:18:02;;;;;;;14.23;9.40;;;;;;;;;;5039358;28;20957;-81
2023/07/27 02:20:31;;;;;;;13.77;8.93;;;;;;;;;;5039359;28;20454;-81
2023/07/27 02:23:00;;;;;;;12.80;9.53;;;;;;;;;;5041992;28;20459;-81
2023/07/27 02:25:26;;;;;;;16.60;9.87;;;;;;;;;;5040940;28;20846;-81
2023/07/27 02:27:52;;;;;;;13.47;9.87;;;;;;;;;;5040115;28;20449;-81
2023/07/27 02:30:19;;;;;;;14.50;10.90;;;;;;;;;;5040557;28;21144;-81
2023/07/27 02:32:45;;;;;;;17.87;10.83;;;;;;;;;;5040311;28;20984;-81
2023/07/27 02:35:11;;;;;;;15.53;10.30;;;;;;;;;;5040881;28;20945;-81
2023/07/27 02:37:38;;;;;;;13.33;10.53;;;;;;;;;;5021842;28;20469;-81
2023/07/27 02:40:07;;;;;;;12.27;10.20;;;;;;;;;;5035848;28;20468;-81
2023/07/27 02:42:33;;;;;;;13.83;10.90;;;;;;;;;;5021474;28;20807;-81
2023/07/27 02:45:00;;;;;;;16.77;11.10;;;;;;;;;;5025090;28;21006;-81
2023/07/27 02:47:27;;;;;;;16.77;11.67;;;;;;;;;;5038199;28;20447;-81
2023/07/27 02:49:53;;;;;;;14.53;10.90;;;;;;;;;;5022134;28;20480;-81
2023/07/27 02:52:19;;;;;;;19.77;11.70;;;;;;;;;;5023818;28;20452;-81
2023/07/27 02:54:45;;;;;;;16.80;11.33;;;;;;;;;;5023054;28;20461;-81
2023/07/27 02:57:13;;;;;;;14.37;11.30;;;;;;;;;;5041097;28;20454;-81
2023/07/27 02:59:40;;;;;;;17.17;11.07;;;;;;;;;;5043332;28;20834;-81
2023/07/27 03:02:06;;;;;;;18.63;12.50;;;;;;;;;;5042431;28;20970;-81
2023/07/27 03:04:33;;;;;;;17.10;12.93;;;;;;;;;;5041233;28;20491;-81
2023/07/27 03:07:01;;;;;;;21.10;14.13;;;;;;;;;;5043440;28;20525;-81
2023/07/27 03:09:27;;;;;;;16.30;12.07;;;;;;;;;;5043856;28;20458;-81
2023/07/27 03:11:54;;;;;;;18.17;12.90;;;;;;;;;;5036637;28;20455;-81
2023/07/27 03:14:22;;;;;;;15.97;12.73;;;;;;;;;;5043889;28;20427;-80
2023/07/27 03:16:48;;;;;;;17.00;13.17;;;;;;;;;;5029960;28;20458;-81
2023/07/27 03:19:14;;;;;;;20.10;13.50;;;;;;;;;;5022720;28;20961;-81
2023/07/27 03:21:41;;;;;;;17.17;14.47;;;;;;;;;;5022203;28;20482;-80
2023/07/27 03:24:08;;;;;;;20.33;11.90;;;;;;;;;;5021133;28;20827;-81
2023/07/27 03:26:34;;;;;;;15.60;12.37;;;;;;;;;;5021367;28;20489;-81
2023/07/27 03:29:00;;;;;;;18.80;12.67;;;;;;;;;;5023403;28;20472;-81
2023/07/27 03:31:28;;;;;;;16.00;12.67;;;;;;;;;;5023247;28;20451;-81
2023/07/27 03:33:55;;;;;;;19.73;12.47;;;;;;;;;;5023498;28;20973;-81
2023/07/27 03:36:22;;;;;;;16.73;12.00;;;;;;;;;;5022964;28;20824;-81
2023/07/27 03:38:48;;;;;;;15.53;12.23;;;;;;;;;;5023667;28;20443;-81
2023/07/27 03:41:15;;;;;;;20.57;13.27;;;;;;;;;;5023324;28;20479;-81
2023/07/27 03:43:41;;;;;;;15.23;11.60;;;;;;;;;;5021362;28;20436;-81
2023/07/27 03:46:07;;;;;;;15.53;12.70;;;;;;;;;;5022505;28;20448;-81
2023/07/27 03:48:35;;;;;;;18.37;14.23;;;;;;;;;;5023802;28;20449;-81
2023/07/27 03:51:02;;;;;;;18.37;13.63;;;;;;;;;;5023093;28;20447;-81
2023/07/27 03:53:29;;;;;;;15.33;13.33;;;;;;;;;;5019558;28;20440;-81
2023/07/27 03:55:55;;;;;;;17.70;12.60;;;;;;;;;;5021415;28;20472;-80
2023/07/27 03:58:22;;;;;;;22.23;14.07;;;;;;;;;;5021355;28;20974;-81
2023/07/27 04:00:48;;;;;;;16.87;13.50;;;;;;;;;;5022676;28;20489;-80
2023/07/27 04:03:14;;;;;;;17.30;13.13;;;;;;;;;;5019821;28;20465;-81
2023/07/27 04:05:42;;;;;;;17.40;12.30;;;;;;;;;;5022379;28;20515;-81
2023/07/27 04:08:10;;;;;;;18.50;13.57;;;;;;;;;;5023335;28;20466;-81
2023/07/27 04:10:36;;;;;;;24.20;13.23;;;;;;;;;;5020397;28;20436;-81
2023/07/27 04:13:03;;;;;;;22.30;13.30;;;;;;;;;;5023570;28;20459;-80
2023/07/27 04:15:29;;;;;;;19.90;12.20;;;;;;;;;;5023491;28;20427;-81
2023/07/27 04:17:55;;;;;;;18.87;13.47;;;;;;;;;;5044220;28;20474;-81
2023/07/27 04:20:21;;;;;;;19.57;12.57;;;;;;;;;;5040450;28;20515;-81
2023/07/27 04:22:49;;;;;;;18.90;12.33;;;;;;;;;;5022071;28;20443;-81
2023/07/27 04:25:16;;;;;;;17.23;12.93;;;;;;;;;;5021771;28;20485;-81
2023/07/27 04:27:42;;;;;;;16.17;12.93;;;;;;;;;;5019357;28;20456;-81
2023/07/27 04:30:09;;;;;;;16.40;12.23;;;;;;;;;;5021853;28;20472;-81
2023/07/27 04:32:35;;;;;;;18.90;12.83;;;;;;;;;;5022337;28;20455;-81
2023/07/27 04:35:01;;;;;;;15.50;12.67;;;;;;;;;;5022632;28;20446;-81
2023/07/27 04:37:27;;;;;;;17.77;12.40;;;;;;;;;;5039283;28;20900;-81
2023/07/27 04:39:55;;;;;;;16.47;12.10;;;;;;;;;;5039770;28;20457;-81
2023/07/27 04:42:21;;;;;;;15.60;10.80;;;;;;;;;;5039994;28;20487;-80
2023/07/27 04:44:48;;;;;;;13.20;11.43;;;;;;;;;;5040572;28;20526;-81
2023/07/27 04:47:14;;;;;;;18.93;13.40;;;;;;;;;;5041718;28;20848;-81
2023/07/27 04:49:41;;;;;;;16.10;12.90;;;;;;;;;;5042793;28;20991;-81
2023/07/27 04:52:07;;;;;;;17.60;12.93;;;;;;;;;;5041001;28;20507;-81
2023/07/27 04:54:34;;;;;;;18.83;13.80;;;;;;;;;;5041873;28;20965;-81
2023/07/27 04:57:01;;;;;;;23.20;13.80;;;;;;;;;;5040382;28;20450;-81
2023/07/27 04:59:28;;;;;;;18.40;14.33;;;;;;;;;;5040837;28;20484;-81
2023/07/27 05:01:54;;;;;;;20.07;14.03;;;;;;;;;;5040989;28;20484;-81
2023/07/27 05:04:20;;;;;;;20.30;14.30;;;;;;;;;;5040104;28;20483;-81
2023/07/27 05:06:47;;;;;;;25.50;15.37;;;;;;;;;;5028377;28;20909;-81
2023/07/27 05:09:14;;;;;;;16.50;14.37;;;;;;;;;;5021381;28;20503;-80
2023/07/27 05:11:40;;;;;;;18.77;14.47;;;;;;;;;;5020353;28;21046;-82
2023/07/27 05:14:08;;;;;;;16.07;14.00;;;;;;;;;;5020058;28;21783;-80
2023/07/27 05:16:34;;;;;;;18.57;14.33;;;;;;;;;;5019610;28;20455;-81
2023/07/27 05:19:00;;;;;;;16.17;13.90;;;;;;;;;;5021236;28;20530;-80
2023/07/27 05:21:27;;;;;;;19.60;16.07;;;;;;;;;;5030916;28;20855;-81
2023/07/27 05:23:53;;;;;;;25.07;15.03;;;;;;;;;;5037293;28;20453;-80
2023/07/27 05:26:19;;;;;;;21.00;15.60;;;;;;;;;;5040309;28;20448;-81
2023/07/27 05:28:46;;;;;;;21.20;14.60;;;;;;;;;;5041238;28;20462;-80
2023/07/27 05:31:14;;;;;;;15.77;13.20;;;;;;;;;;5041857;28;20490;-80
2023/07/27 05:33:41;;;;;;;18.00;13.30;;;;;;;;;;5040920;28;20440;-81
2023/07/27 05:36:07;;;;;;;23.77;13.30;;;;;;;;;;5032645;28;20451;-81
2023/07/27 05:38:33;;;;;;;18.40;15.30;;;;;;;;;;5019125;28;20473;-81
2023/07/27 05:41:01;;;;;;;20.47;14.83;;;;;;;;;;5021268;28;20556;-80
2023/07/27 05:43:27;;;;;;;18.03;13.90;;;;;;;;;;5018571;28;20492;-81
2023/07/27 05:45:53;;;;;;;19.57;14.37;;;;;;;;;;5018762;28;20450;-81
2023/07/27 05:48:21;;;;;;;18.80;14.13;;;;;;;;;;5021009;28;20801;-81
2023/07/27 05:50:47;;;;;;;20.53;14.23;;;;;;;;;;5025627;28;20466;-81
2023/07/27 05:53:14;;;;;;;19.00;14.53;;;;;;;;;;5039382;28;20460;-81
2023/07/27 05:55:41;;;;;;;18.47;13.33;;;;;;;;;;5032804;28;20492;-81
2023/07/27 05:58:07;;;;;;;18.93;16.20;;;;;;;;;;5022155;28;20484;-81
2023/07/27 06:00:33;;;;;;;19.20;15.70;;;;;;;;;;5019014;28;20472;-81
2023/07/27 06:03:00;;;;;;;18.00;15.83;;;;;;;;;;5021077;28;20456;-81
2023/07/27 06:05:27;;;;;;;18.67;15.00;;;;;;;;;;5019521;28;20459;-81
2023/07/27 06:07:54;;;;;;;24.57;15.63;;;;;;;;;;5021090;28;20913;-81
2023/07/27 06:10:20;;;;;;;19.07;14.63;;;;;;;;;;5020500;28;20481;-81
2023/07/27 06:12:46;;;;;;;17.53;14.37;;;;;;;;;;5019561;28;20474;-81
2023/07/27 06:15:13;;;;;;;18.90;15.20;;;;;;;;;;5018196;28;20492;-81
2023/07/27 06:17:39;;;;;;;20.67;16.00;;;;;;;;;;5018793;28;20813;-81
2023/07/27 06:20:06;;;;;;;24.83;16.23;;;;;;;;;;5022679;28;22936;-81
2023/07/27 06:22:34;;;;;;;23.70;15.30;;;;;;;;;;5021810;28;20588;-81
2023/07/27 06:25:00;;;;;;;21.50;15.20;;;;;;;;;;5023013;28;20488;-81
2023/07/27 06:27:26;;;;;;;16.67;14.77;;;;;;;;;;5022937;28;20481;-81
2023/07/27 06:29:53;;;;;;;17.17;13.70;;;;;;;;;;5023686;28;20985;-81
2023/07/27 06:32:19;;;;;;;17.57;14.80;;;;;;;;;;5023251;28;20452;-81
2023/07/27 06:34:47;;;;;;;21.60;14.40;;;;;;;;;;5023061;28;20448;-81
2023/07/27 06:37:13;;;;;;;20.80;13.70;;;;;;;;;;5024566;28;20848;-81
2023/07/27 06:39:41;;;;;;;17.50;14.37;;;;;;;;;;5022545;28;21068;-80
2023/07/27 06:42:08;;;;;;;21.13;14.97;;;;;;;;;;5022024;28;20479;-80
2023/07/27 06:44:34;;;;;;;17.50;14.87;;;;;;;;;;5024030;28;20480;-80
2023/07/27 06:47:01;;;;;;;20.23;15.50;;;;;;;;;;5024984;28;20476;-80
2023/07/27 06:49:27;;;;;;;21.97;16.30;;;;;;;;;;5023213;28;20521;-80
2023/07/27 06:51:54;;;;;;;20.07;15.27;;;;;;;;;;5023332;28;20476;-81
2023/07/27 06:54:20;;;;;;;20.50;15.50;;;;;;;;;;5023849;28;20501;-80
2023/07/27 06:56:48;;;;;;;18.03;15.20;;;;;;;;;;5024100;28;20571;-80
2023/07/27 06:59:14;;;;;;;19.23;15.50;;;;;;;;;;5022953;28;20472;-79
2023/07/27 07:01:40;;;;;;;16.90;13.80;;;;;;;;;;5023149;28;20439;-80
2023/07/27 07:04:07;;;;;;;20.57;16.70;;;;;;;;;;5024291;28;20454;-81
2023/07/27 07:06:35;;;;;;;20.30;15.70;;;;;;;;;;5023353;28;20469;-81
2023/07/27 07:09:01;;;;;;;17.40;14.87;;;;;;;;;;5024197;28;20488;-81
2023/07/27 07:11:28;;;;;;;18.07;13.40;;;;;;;;;;5022185;28;21400;-81
2023/07/27 07:13:58;;;;;;;18.97;14.80;;;;;;;;;;5023035;28;20441;-81
2023/07/27 07:16:24;;;;;;;18.40;15.47;;;;;;;;;;5022355;28;20443;-81
2023/07/27 07:18:50;;;;;;;21.70;16.00;;;;;;;;;;5022704;28;20823;-80
2023/07/27 07:21:17;;;;;;;23.60;15.07;;;;;;;;;;5024321;28;21046;-81
2023/07/27 07:23:43;;;;;;;21.17;16.70;;;;;;;;;;5021363;28;20554;-81
2023/07/27 07:26:10;;;;;;;20.40;15.83;;;;;;;;;;5023484;28;20470;-81
2023/07/27 07:28:35;;;;;;;25.60;15.53;;;;;;;;;;5019710;28;20469;-81
2023/07/27 07:31:03;;;;;;;19.03;15.83;;;;;;;;;;5021039;28;20448;-81
2023/07/27 07:33:30;;;;;;;18.73;15.93;;;;;;;;;;5020518;28;20217;-80
2023/07/27 07:35:56;;;;;;;23.73;16.13;;;;;;;;;;5022830;28;20481;-81
2023/07/27 07:38:22;;;;;;;25.70;16.60;;;;;;;;;;5023180;28;20543;-81
2023/07/27 07:40:48;;;;;;;21.20;15.43;;;;;;;;;;5022430;28;20479;-81
2023/07/27 07:43:15;;;;;;;19.57;16.27;;;;;;;;;;5023212;28;20435;-81
2023/07/27 07:45:42;;;;;;;18.50;15.57;;;;;;;;;;5022776;28;21077;-80
2023/07/27 07:48:11;;;;;;;23.17;16.60;;;;;;;;;;5023954;28;20446;-80
2023/07/27 07:50:38;;;;;;;22.97;16.90;;;;;;;;;;5022494;28;20557;-81
2023/07/27 07:53:05;;;;;;;19.90;15.07;;;;;;;;;;5023248;28;20420;-81
2023/07/27 07:55:34;;;;;;;20.83;17.10;;;;;;;;;;5022133;28;20983;-81
2023/07/27 07:58:00;;;;;;;20.23;16.00;;;;;;;;;;5020695;28;20440;-80
2023/07/27 08:00:26;;;;;;;23.10;15.80;;;;;;;;;;5020217;28;20990;-80
2023/07/27 08:02:53;;;;;;;25.27;17.03;;;;;;;;;;5023435;28;20445;-81
2023/07/27 08:05:20;;;;;;;23.53;16.07;;;;;;;;;;5021725;28;20484;-80
2023/07/27 08:07:47;;;;;;;21.50;16.50;;;;;;;;;;5023518;28;20448;-80
2023/07/27 08:10:13;;;;;;;22.10;15.93;;;;;;;;;;5022245;28;20488;-80
2023/07/27 08:12:39;;;;;;;21.93;14.80;;;;;;;;;;5021182;28;20487;-80
2023/07/27 08:15:06;;;;;;;20.27;15.47;;;;;;;;;;5021516;28;20439;-80
2023/07/27 08:17:35;;;;;;;19.10;14.67;;;;;;;;;;5017042;28;20505;-80
2023/07/27 08:20:01;;;;;;;21.83;15.30;;;;;;;;;;5022714;28;20810;-80
2023/07/27 08:22:29;;;;;;;17.73;15.13;;;;;;;;;;5020171;28;20548;-80
2023/07/27 08:24:55;;;;;;;20.17;15.17;;;;;;;;;;5022385;28;20456;-80
2023/07/27 08:27:22;;;;;;;17.40;14.60;;;;;;;;;;5021132;28;20483;-80
2023/07/27 08:29:48;;;;;;;19.17;14.50;;;;;;;;;;5021854;28;20564;-80
2023/07/27 08:32:14;;;;;;;19.80;15.87;;;;;;;;;;5022328;28;20476;-80
2023/07/27 08:34:41;;;;;;;18.07;13.83;;;;;;;;;;5021058;28;20844;-80
2023/07/27 08:37:07;;;;;;;16.60;13.60;;;;;;;;;;5021523;28;20481;-80
2023/07/27 08:39:35;;;;;;;18.40;14.20;;;;;;;;;;5020839;28;20466;-80
2023/07/27 08:42:02;;;;;;;16.87;13.50;;;;;;;;;;5019452;28;20477;-80
2023/07/27 08:44:28;;;;;;;15.30;13.40;;;;;;;;;;5021558;28;20459;-80
2023/07/27 08:46:56;;;;;;;17.60;13.47;;;;;;;;;;5021953;28;20472;-80
2023/07/27 08:49:22;;;;;;;18.67;12.83;;;;;;;;;;5021637;28;20488;-80
2023/07/27 08:51:48;;;;;;;16.77;13.13;;;;;;;;;;5021009;28;20563;-80
2023/07/27 08:54:15;;;;;;;20.90;14.27;;;;;;;;;;5022106;28;20449;-80
2023/07/27 08:56:42;;;;;;;14.00;11.83;;;;;;;;;;5021439;28;21034;-80
2023/07/27 08:59:09;;;;;;;17.53;12.00;;;;;;;;;;5020927;28;20480;-80
2023/07/27 09:01:35;;;;;;;15.73;12.00;;;;;;;;;;5019304;28;21345;-81
2023/07/27 09:04:01;;;;;;;14.43;11.43;;;;;;;;;;5019427;28;20468;-80
2023/07/27 09:06:40;;;;;;;17.00;11.83;;;;;;;;;;5021442;28;20485;-80
2023/07/27 09:09:16;;;;;;;16.40;11.17;;;;;;;;;;5020909;28;20474;-80
2023/07/27 09:11:45;;;;;;;12.90;11.53;;;;;;;;;;5020541;28;20481;-80
2023/07/27 09:14:12;;;;;;;14.17;11.47;;;;;;;;;;5022000;28;20448;-81
2023/07/27 09:16:38;;;;;;;13.80;11.73;;;;;;;;;;5020367;28;21033;-80
2023/07/27 09:19:06;;;;;;;13.20;11.30;;;;;;;;;;5020397;28;20465;-81
2023/07/27 09:21:38;;;;;;;12.40;11.00;;;;;;;;;;5020216;28;20481;-81
2023/07/27 09:24:04;;;;;;;12.27;9.70;;;;;;;;;;5019906;28;20499;-80
2023/07/27 09:26:32;;;;;;;20.30;11.20;;;;;;;;;;5018221;28;21034;-81
2023/07/27 09:29:03;;;;;;;14.40;11.30;;;;;;;;;;5021189;28;20470;-81
2023/07/27 09:31:32;;;;;;;14.23;11.10;;;;;;;;;;5020442;28;20465;-81
2023/07/27 09:33:58;;;;;;;15.73;11.13;;;;;;;;;;5021725;28;20475;-81
2023/07/27 09:36:25;;;;;;;13.20;11.83;;;;;;;;;;5021363;28;20488;-81
2023/07/27 09:38:51;;;;;;;14.67;13.20;;;;;;;;;;5020472;28;20453;-81
2023/07/27 09:41:17;;;;;;;14.47;13.07;;;;;;;;;;5020858;28;20472;-81
2023/07/27 09:43:43;;;;;;;12.43;11.20;;;;;;;;;;5019982;28;20476;-81
2023/07/27 09:46:11;;;;;;;14.87;12.13;;;;;;;;;;5022077;28;20500;-81
2023/07/27 09:48:38;;;;;;;13.60;12.07;;;;;;;;;;5021023;28;20450;-81
2023/07/27 09:51:07;;;;;;;16.60;12.50;;;;;;;;;;5020285;28;20474;-81
2023/07/27 09:53:35;;;;;;;16.47;13.20;;;;;;;;;;5021744;28;20465;-81
2023/07/27 09:56:01;;;;;;;13.90;12.37;;;;;;;;;;5024640;28;21807;-81
2023/07/27 09:58:28;;;;;;;13.47;12.07;;;;;;;;;;5024092;28;20460;-80
2023/07/27 10:00:55;;;;;;;13.13;11.77;;;;;;;;;;5024414;28;20492;-81
2023/07/27 10:03:22;;;;;;;14.13;12.83;;;;;;;;;;5025366;28;20472;-80
2023/07/27 10:05:49;;;;;;;15.03;13.30;;;;;;;;;;5025161;28;21005;-81
2023/07/27 10:08:16;;;;;;;15.60;13.00;;;;;;;;;;5025197;28;20507;-80
2023/07/27 10:10:44;;;;;;;17.30;13.23;;;;;;;;;;5022209;28;20480;-80
2023/07/27 10:13:12;;;;;;;13.33;11.93;;;;;;;;;;5023698;28;20511;-80
2023/07/27 10:15:40;;;;;;;17.30;13.57;;;;;;;;;;5020322;28;21094;-81
2023/07/27 10:18:06;;;;;;;15.47;13.40;;;;;;;;;;5023956;28;20449;-80
2023/07/27 10:20:35;;;;;;;15.20;13.70;;;;;;;;;;5023834;28;20469;-80
2023/07/27 10:23:11;;;;;;;20.40;13.20;;;;;;;;;;5023486;28;20449;-80
2023/07/27 10:25:56;;;;;;;16.73;11.83;;;;;;;;;;5023366;28;20475;-80
2023/07/27 10:28:29;;;;;;;21.67;13.50;;;;;;;;;;5021500;28;20522;-80
2023/07/27 10:31:10;;;;;;;16.33;12.57;;;;;;;;;;5022105;28;20483;-81
2023/07/27 10:33:37;;;;;;;14.47;10.87;;;;;;;;;;5023722;28;20460;-81
2023/07/27 10:36:05;;;;;;;14.03;11.20;;;;;;;;;;5024688;28;20493;-81
2023/07/27 10:38:32;;;;;;;13.53;12.03;;;;;;;;;;5024298;28;20817;-80
2023/07/27 10:41:11;;;;;;;14.10;11.53;;;;;;;;;;5023419;28;20555;-81
2023/07/27 10:43:37;;;;;;;14.60;10.77;;;;;;;;;;5025219;28;20460;-81
2023/07/27 10:46:21;;;;;;;13.93;11.40;;;;;;;;;;5021450;28;20471;-80
2023/07/27 10:48:57;;;;;;;11.93;10.73;;;;;;;;;;5024795;28;20548;-80
2023/07/27 10:51:25;;;;;;;13.57;11.07;;;;;;;;;;5021353;28;20639;-80
2023/07/27 10:53:51;;;;;;;15.93;11.20;;;;;;;;;;5023633;28;20465;-80
2023/07/27 10:56:18;;;;;;;12.20;10.80;;;;;;;;;;5022650;28;20471;-81
2023/07/27 10:58:45;;;;;;;11.80;10.40;;;;;;;;;;5021905;28;20990;-80
2023/07/27 11:01:12;;;;;;;11.83;10.57;;;;;;;;;;5019774;28;20460;-80
2023/07/27 11:03:38;;;;;;;16.10;11.60;;;;;;;;;;5020698;28;20461;-80
2023/07/27 11:06:06;;;;;;;15.20;10.93;;;;;;;;;;5023581;28;20468;-80
2023/07/27 11:08:36;;;;;;;11.83;10.63;;;;;;;;;;5023024;28;20563;-80
2023/07/27 11:11:13;;;;;;;15.63;12.07;;;;;;;;;;5023782;28;20480;-80
2023/07/27 11:13:40;;;;;;;12.97;11.37;;;;;;;;;;5022308;28;20467;-80
2023/07/27 11:16:07;;;;;;;13.83;11.80;;;;;;;;;;5023640;28;20471;-80
2023/07/27 11:18:34;;;;;;;12.67;11.37;;;;;;;;;;5023000;28;20532;-80
2023/07/27 11:21:01;;;;;;;11.87;10.60;;;;;;;;;;5022197;28;20473;-80
2023/07/27 11:23:28;;;;;;;12.40;11.10;;;;;;;;;;5023619;28;20451;-80
2023/07/27 11:25:57;;;;;;;13.00;11.70;;;;;;;;;;5022009;28;20468;-80
2023/07/27 11:28:24;;;;;;;11.93;10.43;;;;;;;;;;5024004;28;20481;-80
2023/07/27 11:30:51;;;;;;;11.93;9.70;;;;;;;;;;5021032;28;20984;-80
2023/07/27 11:33:17;;;;;;;15.43;10.87;;;;;;;;;;5023444;28;20451;-80
2023/07/27 11:35:47;;;;;;;12.17;10.30;;;;;;;;;;5021435;28;20470;-80
2023/07/27 11:38:14;;;;;;;10.43;9.33;;;;;;;;;;5024279;28;20468;-80
2023/07/27 11:40:45;;;;;;;11.43;10.23;;;;;;;;;;5027055;28;20827;-80
2023/07/27 11:43:13;;;;;;;8.17;7.33;;;;;;;;;;5043982;28;20487;-80
2023/07/27 11:45:41;;;;;;;8.50;7.70;;;;;;;;;;5039473;28;20465;-80
2023/07/27 11:48:07;;;;;;;7.30;6.60;;;;;;;;;;5022189;28;20512;-80
2023/07/27 11:50:35;;;;;;;6.13;5.63;;;;;;;;;;5022643;28;20845;-80
2023/07/27 11:53:03;;;;;;;6.00;5.50;;;;;;;;;;5021935;28;20963;-80
2023/07/27 11:55:32;;;;;;;7.43;5.77;;;;;;;;;;5026080;28;20449;-81
2023/07/27 11:57:58;;;;;;;5.70;5.10;;;;;;;;;;5042433;28;20468;-80
2023/07/27 12:00:26;;;;;;;6.33;5.70;;;;;;;;;;5040539;28;20974;-81
2023/07/27 12:02:52;;;;;;;5.83;5.37;;;;;;;;;;5022816;28;20460;-80
2023/07/27 12:05:20;;;;;;;4.87;4.47;;;;;;;;;;5022603;28;20950;-81
2023/07/27 12:07:46;;;;;;;4.80;4.40;;;;;;;;;;5021386;28;20491;-80
2023/07/27 12:10:13;;;;;;;4.57;4.17;;;;;;;;;;5021971;28;20887;-82
2023/07/27 12:12:46;;;;;;;4.90;4.37;;;;;;;;;;5020987;28;20484;-80
2023/07/27 12:15:25;;;;;;;5.27;4.77;;;;;;;;;;5021609;28;20444;-81
2023/07/27 12:17:57;;;;;;;4.90;4.50;;;;;;;;;;5022795;28;20466;-80
2023/07/27 12:20:23;;;;;;;5.67;5.17;;;;;;;;;;5022640;28;20484;-80
2023/07/27 12:22:49;;;;;;;5.90;5.30;;;;;;;;;;5022092;28;20451;-79
2023/07/27 12:25:16;;;;;;;4.93;4.53;;;;;;;;;;5021936;28;20460;-80
2023/07/27 12:27:42;;;;;;;7.00;4.93;;;;;;;;;;5020821;28;20999;-79
2023/07/27 12:30:10;;;;;;;5.47;4.50;;;;;;;;;;5022358;28;20473;-80
2023/07/27 12:32:36;;;;;;;10.20;5.37;;;;;;;;;;5019138;28;20477;-79
2023/07/27 12:35:12;;;;;;;4.27;3.97;;;;;;;;;;5117217;27;20585;-81
2023/07/27 12:37:39;;;;;;;4.50;4.20;;;;;;;;;;5075015;28;20470;-81
2023/07/27 12:40:07;;;;;;;5.27;4.87;;;;;;;;;;5077651;28;20475;-81
2023/07/27 12:42:35;;;;;;;4.80;4.40;;;;;;;;;;5077592;28;20474;-80
2023/07/27 12:45:01;;;;;;;5.33;4.00;;;;;;;;;;5077872;28;20451;-81
2023/07/27 12:47:27;;;;;;;4.77;4.37;;;;;;;;;;5078084;28;20481;-79
2023/07/27 12:49:54;;;;;;;5.40;4.70;;;;;;;;;;5077780;28;20466;-79
2023/07/27 12:52:22;;;;;;;4.47;4.10;;;;;;;;;;5076459;28;20467;-78
2023/07/27 12:54:48;;;;;;;3.97;3.53;;;;;;;;;;5075665;28;20560;-79
2023/07/27 12:57:15;;;;;;;5.10;4.60;;;;;;;;;;5077379;28;20474;-79
2023/07/27 12:59:41;;;;;;;5.33;4.83;;;;;;;;;;5076882;28;20463;-79
2023/07/27 13:02:08;;;;;;;5.50;5.00;;;;;;;;;;5078767;28;20462;-79
2023/07/27 13:04:34;;;;;;;6.33;5.30;;;;;;;;;;5076315;28;20454;-79
2023/07/27 13:07:01;;;;;;;5.20;4.80;;;;;;;;;;5075846;28;20474;-79
2023/07/27 13:09:29;;;;;;;6.13;5.57;;;;;;;;;;5078549;28;20482;-79
2023/07/27 13:11:55;;;;;;;6.10;5.60;;;;;;;;;;5076898;28;20543;-81
2023/07/27 13:14:22;;;;;;;5.73;5.33;;;;;;;;;;5076992;28;20509;-81
2023/07/27 13:16:48;;;;;;;5.70;5.20;;;;;;;;;;5077449;28;20473;-81
2023/07/27 13:19:15;;;;;;;6.00;5.50;;;;;;;;;;5077354;28;20466;-81
2023/07/27 13:21:41;;;;;;;5.50;5.00;;;;;;;;;;5076645;28;20474;-81
2023/07/27 13:24:08;;;;;;;6.90;6.30;;;;;;;;;;5075398;28;20446;-81
2023/07/27 13:26:35;;;;;;;7.37;6.77;;;;;;;;;;5074853;28;20473;-82
2023/07/27 13:29:02;;;;;;;7.30;6.53;;;;;;;;;;5076032;28;20496;-81
2023/07/27 13:31:28;;;;;;;7.40;6.70;;;;;;;;;;5075617;28;20467;-81
2023/07/27 13:33:55;;;;;;;8.23;7.43;;;;;;;;;;5077317;28;20485;-81
2023/07/27 13:36:21;;;;;;;8.23;7.53;;;;;;;;;;5077743;28;20473;-81
2023/07/27 13:38:49;;;;;;;8.53;7.60;;;;;;;;;;5077396;28;20453;-81
2023/07/27 13:41:15;;;;;;;7.77;7.07;;;;;;;;;;5077175;28;20473;-81
2023/07/27 13:43:43;;;;;;;7.67;7.07;;;;;;;;;;5074487;28;20454;-81
2023/07/27 13:46:10;;;;;;;7.00;6.20;;;;;;;;;;5063814;28;20467;-81
2023/07/27 13:48:36;;;;;;;7.10;6.40;;;;;;;;;;5062919;28;20462;-80
2023/07/27 13:51:05;;;;;;;6.90;6.20;;;;;;;;;;5061776;28;20471;-81
2023/07/27 13:53:32;;;;;;;6.80;6.20;;;;;;;;;;5061160;28;21024;-81
2023/07/27 13:55:59;;;;;;;6.73;5.80;;;;;;;;;;5063261;28;20488;-81
2023/07/27 13:58:25;;;;;;;6.00;5.53;;;;;;;;;;5061171;28;21175;-81
2023/07/27 14:00:54;;;;;;;5.87;5.37;;;;;;;;;;5061701;28;20475;-81
2023/07/27 14:03:21;;;;;;;6.90;6.27;;;;;;;;;;5061203;28;21078;-81
2023/07/27 14:05:49;;;;;;;7.07;6.47;;;;;;;;;;5060620;28;20459;-81
2023/07/27 14:08:15;;;;;;;7.70;7.00;;;;;;;;;;5063205;28;20443;-80
2023/07/27 14:10:42;;;;;;;7.37;6.77;;;;;;;;;;5058446;28;20479;-81
2023/07/27 14:13:08;;;;;;;6.90;6.30;;;;;;;;;;5063165;28;20439;-81
2023/07/27 14:15:36;;;;;;;5.93;5.33;;;;;;;;;;5062846;28;20493;-80
2023/07/27 14:18:03;;;;;;;7.10;6.40;;;;;;;;;;5061802;28;20458;-81
2023/07/27 14:20:30;;;;;;;7.20;6.60;;;;;;;;;;5061744;28;20467;-81
2023/07/27 14:22:57;;;;;;;6.57;5.97;;;;;;;;;;5063502;28;20443;-81
2023/07/27 14:25:23;;;;;;;6.63;6.13;;;;;;;;;;5058856;28;20459;-81
2023/07/27 14:27:49;;;;;;;4.03;3.73;;;;;;;;;;5062190;28;20464;-81